THUNDERSTORM

Not for real navigation. The accuracy of this data is not assured See disclaimer for more information



ICAO NAME COUNTRY WIND Kt GUST Kt VIS m TEMP/DEW C BARO METAR
KQFB 1 0 400 23/23 29.68 KQFB 192220Z AUTO 11001KT 0400 -RA FG FEW001 OVC020 23/23 A2968 RMK A02 TS
KQEY 5 0 2000 24/22 29.28 KQEY 192220Z AUTO 09005KT 2000 BR BKN019 BKN075 24/22 A2928 RMK A02 TS
SLOR Oruro Bolivia 14 0 2000 12/2 30.50 SLOR 192200Z 30014KT 2000 TS DS SCT015 FEW017CB SCT070 BKN200 12/02 Q1033
KQEW 5 0 3200 23/23 29.65 KQEW 192220Z AUTO 02005KT 3200 // OVC012 23/23 A2965 RMK A02 TS
KDTW DETROIT METROPOLITAN MI United States 15 21 3200 23/21 29.86 KDTW 192214Z 18015G21KT 2SM R03R/4000VP6000FT +TSRA BKN030 BKN040CB OVC060 23/21 A2986 RMK AO2 TWR V

Show more